createdAt,value
2023-02-17T00:00:16.460Z,77.70
2023-02-17T00:03:04.392Z,76.70
2023-02-17T00:05:32.389Z,76.00
2023-02-17T00:08:00.400Z,71.80
2023-02-17T00:10:28.395Z,61.60
2023-02-17T00:12:56.377Z,79.50
2023-02-17T00:15:24.326Z,69.70
2023-02-17T00:17:55.233Z,67.40
2023-02-17T00:20:23.502Z,69.10
2023-02-17T00:22:51.703Z,70.90
2023-02-17T00:25:19.688Z,75.80
2023-02-17T00:27:49.181Z,79.20
2023-02-17T00:30:18.039Z,66.60
2023-02-17T00:32:46.145Z,71.40
2023-02-17T00:35:14.264Z,69.20
2023-02-17T00:37:45.660Z,49.70
2023-02-17T00:40:15.614Z,53.20
2023-02-17T00:42:43.538Z,65.90
2023-02-17T00:45:11.499Z,62.60
2023-02-17T00:47:39.566Z,58.30
2023-02-17T00:50:08.262Z,61.50
2023-02-17T00:52:36.394Z,66.80
2023-02-17T00:55:05.232Z,57.10
2023-02-17T00:57:33.301Z,54.90
2023-02-17T01:00:02.543Z,64.60
2023-02-17T01:02:30.586Z,60.20
2023-02-17T01:04:58.766Z,63.80
2023-02-17T01:07:26.773Z,63.80
2023-02-17T01:09:55.164Z,55.00
2023-02-17T01:12:23.155Z,55.90
2023-02-17T01:14:55.315Z,60.40
2023-02-17T01:17:24.798Z,61.50
2023-02-17T01:19:55.654Z,56.20
2023-02-17T01:22:24.132Z,57.80
2023-02-17T01:24:52.285Z,56.80
2023-02-17T01:27:20.597Z,58.40
2023-02-17T01:29:49.199Z,60.60
2023-02-17T01:32:17.324Z,56.70
2023-02-17T01:34:45.375Z,58.40
2023-02-17T01:37:15.320Z,57.20
2023-02-17T01:39:43.522Z,49.30
2023-02-17T01:42:17.586Z,49.00
2023-02-17T01:45:19.703Z,58.40
2023-02-17T01:47:59.417Z,61.70
2023-02-17T01:50:37.146Z,59.40
2023-02-17T01:53:09.232Z,57.30
2023-02-17T01:55:39.702Z,55.20
2023-02-17T01:58:10.794Z,51.00
2023-02-17T02:00:39.637Z,53.80
2023-02-17T02:03:11.278Z,51.60
2023-02-17T02:05:41.308Z,54.70
2023-02-17T02:08:11.253Z,53.80
2023-02-17T02:10:40.014Z,55.20
2023-02-17T02:13:08.987Z,58.40
2023-02-17T02:16:21.253Z,60.50
2023-02-17T02:19:09.766Z,59.20
2023-02-17T02:22:07.187Z,61.10
2023-02-17T02:25:17.029Z,58.70
2023-02-17T02:27:52.964Z,59.60
2023-02-17T02:30:45.206Z,55.00
2023-02-17T02:33:43.511Z,55.20
2023-02-17T02:36:30.095Z,50.50
2023-02-17T02:41:41.941Z,54.90
2023-02-17T02:44:15.723Z,52.70
2023-02-17T02:46:44.191Z,57.10
2023-02-17T02:49:12.690Z,58.90
2023-02-17T02:51:59.567Z,54.00
2023-02-17T02:54:42.211Z,54.00
2023-02-17T02:57:29.969Z,49.40
2023-02-17T03:00:15.662Z,45.70
2023-02-17T03:02:58.314Z,47.80
2023-02-17T03:05:42.054Z,61.90
2023-02-17T03:08:15.953Z,50.50
2023-02-17T03:10:50.180Z,44.70
2023-02-17T03:13:19.578Z,52.60
2023-02-17T03:15:48.288Z,52.50
2023-02-17T03:18:16.365Z,56.80
2023-02-17T03:20:56.341Z,60.70
2023-02-17T03:23:26.428Z,54.80
2023-02-17T03:25:54.577Z,56.30
2023-02-17T03:28:22.689Z,49.00
2023-02-17T03:30:50.947Z,56.80
2023-02-17T03:33:19.124Z,56.80
2023-02-17T03:35:47.238Z,52.10
2023-02-17T03:38:16.815Z,60.10
2023-02-17T03:40:45.019Z,50.80
2023-02-17T03:43:13.538Z,51.10
2023-02-17T03:45:41.667Z,50.90
2023-02-17T03:48:10.886Z,59.80
2023-02-17T03:50:38.875Z,62.40
2023-02-17T03:53:07.068Z,60.30
2023-02-17T03:55:35.408Z,57.10
2023-02-17T03:58:03.896Z,57.80
2023-02-17T04:00:31.913Z,57.70
2023-02-17T04:03:00.180Z,56.70
2023-02-17T04:05:28.312Z,57.70
2023-02-17T04:07:56.453Z,51.90
2023-02-17T04:10:24.492Z,57.10
2023-02-17T04:12:54.160Z,51.00
2023-02-17T04:15:22.256Z,56.70
2023-02-17T04:17:50.224Z,62.70
2023-02-17T04:20:18.322Z,66.00
2023-02-17T04:22:46.701Z,61.20
2023-02-17T04:25:14.700Z,57.30
2023-02-17T04:27:42.849Z,51.00
2023-02-17T04:30:13.892Z,54.50
2023-02-17T04:32:41.847Z,51.00
2023-02-17T04:35:09.904Z,50.00
2023-02-17T04:37:38.010Z,43.30
2023-02-17T04:40:10.501Z,48.00
2023-02-17T04:42:38.853Z,56.80
2023-02-17T04:45:07.848Z,51.40
2023-02-17T04:47:36.080Z,62.40
2023-02-17T04:50:06.150Z,46.30
2023-02-17T04:52:34.582Z,54.00
2023-02-17T04:55:02.927Z,51.20
2023-02-17T04:57:31.093Z,56.30
2023-02-17T04:59:59.329Z,61.30
2023-02-17T05:02:28.459Z,51.00
2023-02-17T05:04:56.506Z,52.40
2023-02-17T05:07:25.291Z,53.70
2023-02-17T05:09:54.290Z,54.30
2023-02-17T05:12:22.348Z,48.10
2023-02-17T05:14:50.644Z,49.40
2023-02-17T05:17:19.068Z,55.20
2023-02-17T05:19:47.632Z,57.50
2023-02-17T05:22:16.117Z,56.60
2023-02-17T05:24:44.143Z,56.00
2023-02-17T05:27:13.578Z,58.50
2023-02-17T05:29:41.986Z,55.70
2023-02-17T05:32:10.189Z,53.40
2023-02-17T05:34:39.094Z,47.50
2023-02-17T05:37:08.195Z,50.60
2023-02-17T05:39:36.632Z,48.40
2023-02-17T05:42:04.952Z,47.70
2023-02-17T05:44:33.361Z,52.90
2023-02-17T05:47:02.242Z,50.00
2023-02-17T05:49:30.539Z,54.30
2023-02-17T05:51:59.233Z,53.10
2023-02-17T05:54:29.013Z,56.30
2023-02-17T05:56:57.183Z,51.40
2023-02-17T05:59:27.055Z,56.20
2023-02-17T06:01:55.334Z,53.40
2023-02-17T06:04:24.488Z,38.70
2023-02-17T06:06:54.122Z,51.40
2023-02-17T06:09:22.170Z,48.20
2023-02-17T06:11:50.433Z,48.40
2023-02-17T06:14:19.689Z,51.00
2023-02-17T06:16:48.008Z,51.00
2023-02-17T06:19:18.330Z,61.40
2023-02-17T06:21:47.128Z,52.40
2023-02-17T06:24:15.537Z,58.20
2023-02-17T06:26:44.267Z,49.20
2023-02-17T06:29:12.335Z,50.60
2023-02-17T06:31:40.655Z,47.60
2023-02-17T06:34:10.761Z,53.30
2023-02-17T06:36:39.559Z,48.60
2023-02-17T06:39:09.778Z,53.80
2023-02-17T06:41:37.993Z,50.90
2023-02-17T06:44:07.920Z,55.70
2023-02-17T06:46:36.426Z,55.70
2023-02-17T06:49:04.866Z,57.30
2023-02-17T06:51:32.977Z,55.30
2023-02-17T06:54:01.061Z,53.00
2023-02-17T06:56:29.282Z,51.80
2023-02-17T06:58:57.649Z,47.80
2023-02-17T07:01:28.165Z,51.40
2023-02-17T07:03:58.720Z,49.80
2023-02-17T07:06:29.567Z,51.20
2023-02-17T07:08:57.797Z,47.00
2023-02-17T07:11:27.361Z,56.50
2023-02-17T07:13:56.618Z,53.60
2023-02-17T07:16:25.008Z,53.80
2023-02-17T07:18:53.345Z,53.50
2023-02-17T07:21:22.739Z,52.60
2023-02-17T07:23:53.530Z,51.20
2023-02-17T07:26:21.821Z,55.50
2023-02-17T07:28:49.908Z,62.80
2023-02-17T07:31:24.723Z,49.10
2023-02-17T07:33:53.178Z,47.60
2023-02-17T07:36:21.595Z,58.00
2023-02-17T07:38:50.445Z,52.70
2023-02-17T07:41:21.828Z,47.00
2023-02-17T07:43:54.841Z,45.30
2023-02-17T07:46:23.796Z,45.10
2023-02-17T07:48:52.359Z,54.00
2023-02-17T07:51:22.549Z,50.60
2023-02-17T07:53:52.418Z,53.50
2023-02-17T07:56:23.090Z,52.80
2023-02-17T07:58:53.712Z,48.60
2023-02-17T08:01:24.504Z,49.60
2023-02-17T08:03:54.158Z,49.80
2023-02-17T08:06:27.176Z,57.00
2023-02-17T08:09:15.492Z,56.30
2023-02-17T08:12:05.160Z,44.40
2023-02-17T08:14:33.683Z,57.50
2023-02-17T08:17:02.366Z,54.90
2023-02-17T08:19:46.709Z,51.20
2023-02-17T08:22:18.145Z,56.70
2023-02-17T08:24:50.911Z,51.20
2023-02-17T08:27:22.438Z,51.30
2023-02-17T08:29:50.942Z,48.70
2023-02-17T08:32:20.183Z,55.60
2023-02-17T08:34:48.876Z,54.40
2023-02-17T08:37:19.658Z,51.50
2023-02-17T08:39:48.120Z,49.80
2023-02-17T08:42:18.048Z,54.80
2023-02-17T08:44:46.324Z,46.90
2023-02-17T08:47:15.300Z,43.30
2023-02-17T08:49:52.198Z,49.30
2023-02-17T08:52:21.115Z,48.80
2023-02-17T08:54:51.729Z,53.60
2023-02-17T08:57:23.725Z,45.60
2023-02-17T08:59:55.062Z,44.60
2023-02-17T09:02:23.220Z,49.30
2023-02-17T09:04:51.941Z,49.80
2023-02-17T09:07:20.050Z,46.70
2023-02-17T09:09:48.139Z,48.50
2023-02-17T09:12:17.041Z,48.90
2023-02-17T09:14:45.914Z,55.80
2023-02-17T09:17:14.364Z,59.80
2023-02-17T09:19:42.416Z,60.20
2023-02-17T09:22:31.655Z,75.50
2023-02-17T09:25:00.700Z,74.30
2023-02-17T09:27:30.969Z,78.50
2023-02-17T09:30:01.748Z,67.30
2023-02-17T09:32:30.242Z,70.40
2023-02-17T09:34:58.805Z,60.30
2023-02-17T09:37:27.185Z,58.00
2023-02-17T09:39:55.932Z,58.60
2023-02-17T09:42:28.417Z,69.90
2023-02-17T09:45:08.561Z,59.20
2023-02-17T09:47:51.864Z,62.50
2023-02-17T09:50:26.160Z,72.40
2023-02-17T09:53:11.344Z,55.80
2023-02-17T09:55:45.308Z,70.60
2023-02-17T09:58:31.125Z,62.50
2023-02-17T10:03:56.089Z,61.90
2023-02-17T10:06:46.897Z,62.00
2023-02-17T10:09:36.189Z,60.60
2023-02-17T10:12:13.976Z,58.00
2023-02-17T10:14:51.373Z,59.40
2023-02-17T10:17:28.777Z,62.00
2023-02-17T10:20:11.604Z,54.10
2023-02-17T10:22:46.093Z,59.00
2023-02-17T10:25:17.857Z,60.40
2023-02-17T10:28:11.081Z,54.10
2023-02-17T10:30:56.229Z,60.30
2023-02-17T10:33:56.647Z,60.30
2023-02-17T10:39:14.115Z,58.00
2023-02-17T10:41:55.121Z,65.90
2023-02-17T10:44:25.132Z,67.40
2023-02-17T10:46:55.246Z,70.30
2023-02-17T10:49:37.740Z,61.90
2023-02-17T10:52:15.959Z,64.60
2023-02-17T10:55:01.931Z,66.60
2023-02-17T10:57:38.462Z,69.60
2023-02-17T11:00:15.470Z,64.00
2023-02-17T11:02:46.359Z,61.60
2023-02-17T11:05:34.108Z,62.30
2023-02-17T11:08:24.018Z,59.00
2023-02-17T11:11:26.632Z,57.30
2023-02-17T11:14:07.762Z,63.20
2023-02-17T11:16:45.915Z,58.80
2023-02-17T11:19:27.579Z,54.20
2023-02-17T11:22:01.366Z,64.40
2023-02-17T11:24:32.013Z,56.00
2023-02-17T11:27:02.168Z,56.40
2023-02-17T11:29:30.867Z,59.50
2023-02-17T11:32:08.563Z,66.60
2023-02-17T11:34:39.612Z,66.30
2023-02-17T11:37:13.968Z,65.50
2023-02-17T11:39:46.485Z,68.60
2023-02-17T11:42:22.254Z,66.50
2023-02-17T11:44:53.093Z,76.20
2023-02-17T11:47:30.482Z,63.70
2023-02-17T11:50:45.930Z,55.70
2023-02-17T11:53:32.656Z,61.40
2023-02-17T11:56:08.894Z,52.20
2023-02-17T11:58:46.368Z,58.90
2023-02-17T12:01:37.143Z,52.30
2023-02-17T12:04:05.160Z,55.10
2023-02-17T12:06:36.124Z,48.30
2023-02-17T12:09:25.468Z,49.00
2023-02-17T12:12:16.774Z,44.90
2023-02-17T12:14:54.507Z,44.80
2023-02-17T12:17:56.654Z,35.10
2023-02-17T12:20:50.555Z,39.70
2023-02-17T12:23:50.998Z,45.30
2023-02-17T12:26:40.075Z,48.60
2023-02-17T12:29:20.117Z,42.70
2023-02-17T12:32:14.893Z,61.70
2023-02-17T12:34:49.939Z,44.10
2023-02-17T12:39:57.386Z,39.60
2023-02-17T12:42:51.564Z,41.10
2023-02-17T12:45:24.098Z,42.90
2023-02-17T12:48:02.222Z,43.00
2023-02-17T12:50:36.995Z,36.70
2023-02-17T12:53:16.824Z,47.20
2023-02-17T12:56:01.176Z,47.10
2023-02-17T12:58:32.193Z,50.80
2023-02-17T13:01:10.916Z,42.20
2023-02-17T13:03:40.441Z,41.20
2023-02-17T13:06:22.058Z,43.00
2023-02-17T13:09:03.181Z,44.80
2023-02-17T13:11:39.770Z,43.40
2023-02-17T13:14:28.045Z,43.20
2023-02-17T13:16:56.381Z,36.40
2023-02-17T13:19:32.936Z,41.40
2023-02-17T13:24:39.177Z,46.00
2023-02-17T13:27:22.391Z,38.60
2023-02-17T13:30:26.143Z,39.30
2023-02-17T13:33:07.490Z,37.70
2023-02-17T13:35:37.627Z,36.10
2023-02-17T13:38:05.769Z,44.70
2023-02-17T13:40:37.073Z,29.40
2023-02-17T13:43:24.686Z,28.80
2023-02-17T13:46:04.812Z,38.30
2023-02-17T13:48:36.752Z,49.40
2023-02-17T13:51:07.135Z,52.10
2023-02-17T13:53:38.303Z,57.50
2023-02-17T13:56:35.856Z,50.40
2023-02-17T13:59:18.941Z,43.90
2023-02-17T14:04:28.614Z,47.50
2023-02-17T14:07:04.206Z,45.90
2023-02-17T14:09:34.404Z,59.70
2023-02-17T14:12:06.797Z,51.50
2023-02-17T14:14:38.152Z,49.80
2023-02-17T14:17:13.847Z,54.60
2023-02-17T14:19:47.626Z,59.00
2023-02-17T14:22:41.912Z,48.10
2023-02-17T14:25:26.772Z,48.70
2023-02-17T14:27:57.119Z,59.60
2023-02-17T14:30:39.313Z,48.00
2023-02-17T14:33:22.050Z,47.80
2023-02-17T14:36:00.701Z,45.60
2023-02-17T14:38:32.371Z,49.70
2023-02-17T14:41:01.330Z,47.70
2023-02-17T14:43:30.701Z,44.80
2023-02-17T14:45:58.926Z,47.20
2023-02-17T14:48:28.018Z,46.40
2023-02-17T14:50:57.800Z,52.00
2023-02-17T14:53:31.872Z,46.20
2023-02-17T14:56:04.979Z,46.40
2023-02-17T14:58:33.517Z,55.00
2023-02-17T15:01:02.902Z,52.30
2023-02-17T15:03:32.641Z,53.30
2023-02-17T15:06:01.340Z,83.50
2023-02-17T15:08:36.093Z,44.50
2023-02-17T15:11:04.425Z,47.70
2023-02-17T15:13:33.607Z,49.20
2023-02-17T15:16:02.007Z,48.60
2023-02-17T15:18:30.336Z,53.70
2023-02-17T15:20:58.672Z,52.20
2023-02-17T15:23:34.413Z,51.50
2023-02-17T15:26:04.004Z,54.80
2023-02-17T15:28:32.259Z,47.90
2023-02-17T15:31:01.623Z,52.20
2023-02-17T15:33:29.860Z,52.00
2023-02-17T15:35:58.274Z,56.50
2023-02-17T15:38:27.292Z,60.20
2023-02-17T15:40:58.518Z,59.70
2023-02-17T15:46:20.017Z,61.50
2023-02-17T15:48:50.135Z,55.20
2023-02-17T15:51:21.199Z,62.40
2023-02-17T15:53:57.656Z,60.20
2023-02-17T15:56:31.923Z,61.20
2023-02-17T15:59:08.444Z,58.10
2023-02-17T16:01:38.091Z,64.90
2023-02-17T16:04:06.963Z,70.10
2023-02-17T16:06:37.262Z,89.10
2023-02-17T16:09:07.355Z,64.00
2023-02-17T16:11:49.339Z,64.00
2023-02-17T16:14:25.170Z,68.60
2023-02-17T16:16:53.715Z,67.00
2023-02-17T16:19:22.659Z,74.20
2023-02-17T16:21:51.008Z,66.30
2023-02-17T16:24:19.265Z,62.90
2023-02-17T16:26:52.002Z,64.70
2023-02-17T16:29:22.981Z,67.30
2023-02-17T16:31:55.258Z,60.90
2023-02-17T16:34:24.176Z,56.90
2023-02-17T16:36:57.783Z,63.10
2023-02-17T16:41:59.595Z,53.70
2023-02-17T16:44:29.169Z,54.90
2023-02-17T16:47:02.213Z,55.20
2023-02-17T16:52:07.404Z,57.00
2023-02-17T16:54:38.234Z,58.70
2023-02-17T16:57:07.056Z,62.10
2023-02-17T16:59:37.342Z,58.80
2023-02-17T17:02:13.024Z,55.70
2023-02-17T17:04:41.764Z,54.50
2023-02-17T17:07:19.495Z,60.60
2023-02-17T17:10:14.352Z,58.90
2023-02-17T17:12:40.041Z,59.20
2023-02-17T17:15:09.158Z,63.40
2023-02-17T17:19:00.441Z,70.20
2023-02-17T17:21:42.956Z,62.00
2023-02-17T17:24:16.454Z,64.20
2023-02-17T17:26:53.406Z,64.30
2023-02-17T17:29:23.995Z,66.80
2023-02-17T17:31:52.196Z,66.50
2023-02-17T17:34:21.961Z,63.10
2023-02-17T17:36:53.270Z,63.00
2023-02-17T17:39:29.636Z,73.50
2023-02-17T17:47:01.648Z,66.60
2023-02-17T17:50:02.450Z,63.40
2023-02-17T17:52:32.816Z,68.90
2023-02-17T17:55:02.659Z,73.10
2023-02-17T17:57:53.960Z,77.30
2023-02-17T18:00:24.682Z,78.70
2023-02-17T18:09:30.255Z,100.00
2023-02-17T18:12:27.783Z,86.00
2023-02-17T18:14:56.257Z,89.80
2023-02-17T18:19:04.749Z,91.60
2023-02-17T18:21:41.343Z,94.40
2023-02-17T18:24:12.122Z,84.70
2023-02-17T18:26:41.047Z,76.70
2023-02-17T18:29:10.918Z,77.40
2023-02-17T18:31:39.560Z,75.30
2023-02-17T18:34:08.125Z,74.90
2023-02-17T18:36:42.936Z,78.00
2023-02-17T18:49:08.709Z,81.50
2023-02-17T18:51:37.459Z,85.30
2023-02-17T18:54:09.668Z,85.70
2023-02-17T18:56:38.169Z,73.90
2023-02-17T19:00:13.325Z,77.90
2023-02-17T19:07:07.244Z,77.40
2023-02-17T19:09:42.356Z,77.40
2023-02-17T19:12:14.984Z,75.60
2023-02-17T19:14:43.855Z,74.20
2023-02-17T19:17:13.707Z,79.10
2023-02-17T19:19:43.257Z,76.90
2023-02-17T19:22:12.687Z,79.40
2023-02-17T19:24:42.315Z,73.40
2023-02-17T19:27:50.657Z,78.10
2023-02-17T19:30:27.916Z,73.20
2023-02-17T19:32:57.040Z,85.10
2023-02-17T19:35:29.172Z,84.90
2023-02-17T19:43:59.759Z,82.10
2023-02-17T20:18:05.987Z,98.40
2023-02-17T20:48:34.973Z,96.00
2023-02-17T20:52:09.318Z,86.20
2023-02-17T20:54:39.364Z,82.10
2023-02-17T20:57:14.370Z,77.80
2023-02-17T21:00:30.788Z,78.00
2023-02-17T21:03:02.420Z,76.70
2023-02-17T21:05:35.490Z,77.30
2023-02-17T21:08:06.036Z,79.90
2023-02-17T21:10:41.672Z,80.20
2023-02-17T21:13:10.104Z,80.00
2023-02-17T21:15:39.584Z,82.50
2023-02-17T21:18:09.062Z,75.60
2023-02-17T23:20:48.398Z,79.10
2023-02-17T23:23:20.222Z,87.20
2023-02-17T23:25:56.015Z,87.90
